Time;durP1;ratioP1;P1;durP2;ratioP2;P2;SDS_P1;SDS_P2;PMS_P1;PMS_P2;Temp;Humidity;BMP_temperature;BMP_pressure;BME280_temperature;BME280_humidity;BME280_pressure;Samples;Min_cycle;Max_cycle;Signal;HPM_P1;HPM_P2
2023/09/05 00:00:12;;;;;;;5.63;0.80;;;20.40;31.30;;;;;;5073481;28;20191;-68
2023/09/05 00:02:41;;;;;;;1.00;0.83;;;20.60;29.60;;;;;;5073094;28;20202;-67
2023/09/05 00:05:09;;;;;;;1.77;0.60;;;20.80;28.50;;;;;;5072992;28;20250;-67
2023/09/05 00:07:38;;;;;;;2.73;1.00;;;20.90;27.50;;;;;;5073033;28;20171;-67
2023/09/05 00:10:13;;;;;;;1.27;1.00;;;21.10;28.50;;;;;;5072864;28;20183;-65
2023/09/05 00:12:42;;;;;;;2.40;0.70;;;21.30;27.90;;;;;;5073004;28;20537;-69
2023/09/05 00:15:12;;;;;;;4.00;1.00;;;21.30;28.00;;;;;;5072878;28;20183;-67
2023/09/05 00:17:40;;;;;;;2.97;0.83;;;21.40;27.60;;;;;;5072453;28;20190;-69
2023/09/05 00:20:09;;;;;;;2.50;0.70;;;21.50;27.50;;;;;;5073050;28;20290;-70
2023/09/05 00:22:36;;;;;;;2.27;0.70;;;21.40;26.50;;;;;;5074037;28;20187;-66
2023/09/05 00:25:04;;;;;;;3.77;0.67;;;21.30;24.90;;;;;;5072916;28;20227;-74
2023/09/05 00:27:31;;;;;;;3.37;0.60;;;21.20;26.10;;;;;;5071984;28;20190;-69
2023/09/05 00:29:58;;;;;;;4.47;0.67;;;21.40;25.50;;;;;;5072520;28;20284;-73
2023/09/05 00:32:25;;;;;;;1.67;0.77;;;21.50;25.00;;;;;;5072513;28;20229;-74
2023/09/05 00:34:53;;;;;;;1.07;0.60;;;21.40;24.90;;;;;;5072885;28;20703;-71
2023/09/05 00:37:23;;;;;;;1.67;0.70;;;21.40;24.70;;;;;;5072245;28;20187;-69
2023/09/05 00:39:51;;;;;;;0.83;0.70;;;21.50;24.30;;;;;;5072451;28;20274;-67
2023/09/05 00:42:18;;;;;;;2.37;0.57;;;21.70;24.60;;;;;;5070161;28;20309;-66
2023/09/05 00:44:50;;;;;;;1.40;0.60;;;21.80;24.60;;;;;;5072264;28;20215;-69
2023/09/05 00:47:22;;;;;;;0.90;0.70;;;21.80;24.70;;;;;;5071908;28;20512;-75
2023/09/05 00:49:49;;;;;;;1.20;0.70;;;21.70;24.40;;;;;;5072810;28;20186;-67
2023/09/05 00:52:19;;;;;;;1.27;0.70;;;21.70;24.70;;;;;;5072877;28;20179;-66
2023/09/05 00:54:47;;;;;;;2.67;0.70;;;21.80;24.80;;;;;;5072912;28;20187;-67
2023/09/05 00:57:15;;;;;;;5.57;0.80;;;21.90;24.70;;;;;;5072272;28;20191;-68
2023/09/05 00:59:44;;;;;;;1.30;0.67;;;22.20;24.40;;;;;;5072393;28;20544;-70
2023/09/05 01:02:11;;;;;;;2.70;0.80;;;22.10;24.60;;;;;;5072654;28;20218;-68
2023/09/05 01:04:41;;;;;;;4.50;0.80;;;22.30;25.20;;;;;;5066155;28;20215;-67
2023/09/05 01:07:37;;;;;;;1.87;0.87;;;22.20;24.70;;;;;;5071170;28;20194;-66
2023/09/05 01:10:10;;;;;;;0.60;0.60;;;22.30;25.00;;;;;;5014490;28;20194;-67
2023/09/05 01:12:38;;;;;;;3.13;0.70;;;22.30;24.30;;;;;;5072300;28;20191;-67
2023/09/05 01:15:07;;;;;;;1.10;0.70;;;22.30;24.30;;;;;;5072580;28;20240;-66
2023/09/05 01:17:35;;;;;;;2.63;0.80;;;22.50;24.10;;;;;;5069659;28;20187;-68
2023/09/05 01:20:05;;;;;;;1.23;0.67;;;22.70;24.10;;;;;;5067905;28;20183;-67
2023/09/05 01:23:04;;;;;;;0.93;0.60;;;22.80;23.90;;;;;;5068623;28;20175;-68
2023/09/05 01:25:32;;;;;;;1.47;0.60;;;22.90;23.50;;;;;;5069056;28;20195;-70
2023/09/05 01:28:00;;;;;;;2.30;0.73;;;22.70;23.40;;;;;;5070377;28;20179;-70
2023/09/05 01:30:28;;;;;;;3.37;0.70;;;22.80;23.50;;;;;;5070785;28;20183;-67
2023/09/05 01:32:56;;;;;;;1.47;0.63;;;22.80;23.90;;;;;;5070464;28;20179;-67
2023/09/05 01:35:23;;;;;;;2.07;0.70;;;23.20;23.70;;;;;;5067520;28;20198;-66
2023/09/05 01:37:50;;;;;;;1.03;0.77;;;23.40;23.00;;;;;;5069752;28;20176;-68
2023/09/05 01:40:18;;;;;;;1.47;0.60;;;23.40;22.60;;;;;;5066416;28;20568;-67
2023/09/05 01:42:45;;;;;;;4.03;0.67;;;23.30;22.10;;;;;;5069866;28;20255;-66
2023/09/05 01:45:13;;;;;;;3.80;0.70;;;23.30;22.50;;;;;;5070117;28;20202;-70
2023/09/05 01:47:40;;;;;;;1.07;0.57;;;23.50;22.80;;;;;;5070719;28;20711;-67
2023/09/05 01:50:08;;;;;;;1.80;0.60;;;23.70;21.80;;;;;;5069675;28;20748;-68
2023/09/05 01:52:35;;;;;;;2.40;0.50;;;23.80;21.40;;;;;;5070302;28;20225;-66
2023/09/05 01:55:02;;;;;;;0.60;0.50;;;23.70;21.00;;;;;;5069665;28;20277;-68
2023/09/05 01:57:30;;;;;;;0.73;0.50;;;24.00;21.10;;;;;;5069210;28;20242;-68
2023/09/05 01:59:57;;;;;;;0.90;0.57;;;24.00;20.60;;;;;;5068268;28;20215;-67
2023/09/05 02:02:25;;;;;;;1.30;0.57;;;24.10;19.50;;;;;;5067707;28;20565;-70
2023/09/05 02:04:52;;;;;;;2.53;0.53;;;23.80;19.00;;;;;;5070283;28;20215;-72
2023/09/05 02:07:20;;;;;;;1.00;0.70;;;23.80;19.00;;;;;;5069670;28;20233;-69
2023/09/05 02:09:47;;;;;;;2.83;0.60;;;23.90;19.10;;;;;;5067053;28;20191;-72
2023/09/05 02:12:14;;;;;;;3.60;0.50;;;24.00;18.80;;;;;;5069930;28;20179;-68
2023/09/05 02:14:47;;;;;;;2.40;0.50;;;24.30;19.20;;;;;;5069968;28;20645;-66
2023/09/05 02:17:20;;;;;;;2.97;0.67;;;24.40;18.60;;;;;;5069761;28;20194;-66
2023/09/05 02:19:48;;;;;;;0.93;0.50;;;24.50;19.00;;;;;;5069649;28;20203;-68
2023/09/05 02:22:15;;;;;;;3.23;0.60;;;24.80;18.40;;;;;;5069816;28;20236;-68
2023/09/05 02:24:42;;;;;;;1.80;0.40;;;24.80;18.80;;;;;;5069149;28;20717;-66
2023/09/05 02:27:10;;;;;;;2.00;0.50;;;24.70;18.40;;;;;;5069665;28;20183;-68
2023/09/05 02:29:37;;;;;;;2.07;0.57;;;24.90;18.30;;;;;;5070311;28;20179;-66
2023/09/05 02:32:05;;;;;;;0.73;0.50;;;25.00;17.80;;;;;;5069609;28;20246;-67
2023/09/05 02:34:32;;;;;;;1.93;0.50;;;25.10;17.80;;;;;;5068304;28;20550;-64
2023/09/05 02:37:00;;;;;;;1.80;0.50;;;25.40;17.80;;;;;;5071845;28;20649;-66
2023/09/05 02:39:28;;;;;;;0.40;0.40;;;25.20;17.30;;;;;;5073119;28;20689;-67
2023/09/05 02:41:55;;;;;;;3.03;0.40;;;25.30;17.40;;;;;;5068900;28;20388;-67
2023/09/05 02:44:23;;;;;;;0.77;0.40;;;25.50;17.70;;;;;;5070474;28;20241;-66
2023/09/05 02:46:52;;;;;;;2.67;0.50;;;25.70;18.20;;;;;;5073712;28;20194;-67
2023/09/05 02:49:19;;;;;;;0.97;0.57;;;25.70;18.30;;;;;;5071210;28;20264;-66
2023/09/05 02:51:46;;;;;;;1.37;0.50;;;25.70;18.00;;;;;;5072041;28;20266;-68
2023/09/05 02:54:14;;;;;;;0.90;0.40;;;26.00;18.00;;;;;;5073333;28;20276;-67
2023/09/05 02:56:41;;;;;;;0.83;0.47;;;25.80;18.20;;;;;;5073281;28;20175;-66
2023/09/05 02:59:08;;;;;;;1.37;0.53;;;25.80;18.40;;;;;;5072838;28;20225;-66
2023/09/05 03:01:36;;;;;;;2.40;0.47;;;26.00;18.50;;;;;;5071468;28;20187;-67
2023/09/05 03:04:03;;;;;;;1.67;0.60;;;25.90;18.30;;;;;;5073268;28;20219;-67
2023/09/05 03:06:31;;;;;;;2.50;0.53;;;25.90;18.80;;;;;;5072731;28;20222;-67
2023/09/05 03:08:58;;;;;;;2.60;0.50;;;26.30;18.60;;;;;;5073431;28;20191;-67
2023/09/05 03:11:25;;;;;;;2.63;0.57;;;26.60;17.80;;;;;;5072163;28;20190;-67
2023/09/05 03:13:52;;;;;;;1.03;0.40;;;26.30;17.90;;;;;;5072488;28;20199;-67
2023/09/05 03:16:21;;;;;;;1.60;0.57;;;26.30;17.60;;;;;;5072943;28;20209;-66
2023/09/05 03:18:48;;;;;;;1.20;0.60;;;26.30;17.80;;;;;;5072626;28;20254;-68
2023/09/05 03:21:16;;;;;;;0.83;0.53;;;26.60;17.20;;;;;;5071793;28;20191;-67
2023/09/05 03:23:43;;;;;;;2.23;0.47;;;27.10;17.60;;;;;;5072524;28;20269;-67
2023/09/05 03:26:10;;;;;;;0.60;0.40;;;27.30;17.20;;;;;;5072317;28;20175;-66
2023/09/05 03:28:43;;;;;;;2.50;0.53;;;27.30;16.80;;;;;;5071563;28;20187;-65
2023/09/05 03:31:10;;;;;;;0.67;0.40;;;26.70;16.60;;;;;;5070907;28;20241;-66
2023/09/05 03:33:38;;;;;;;0.77;0.37;;;27.20;16.90;;;;;;5070085;28;20183;-68
2023/09/05 03:36:05;;;;;;;0.67;0.30;;;27.30;16.20;;;;;;5069633;28;20660;-67
2023/09/05 03:38:33;;;;;;;0.53;0.40;;;27.10;16.70;;;;;;5069215;28;20191;-68
2023/09/05 03:41:00;;;;;;;3.70;0.50;;;27.30;17.00;;;;;;5071976;28;20222;-67
2023/09/05 03:43:31;;;;;;;1.23;0.30;;;27.10;16.70;;;;;;5071693;28;20734;-66
2023/09/05 03:45:58;;;;;;;0.60;0.30;;;27.30;16.60;;;;;;5072207;28;20237;-66
2023/09/05 03:48:25;;;;;;;0.47;0.47;;;27.40;16.40;;;;;;5072113;28;20175;-67
2023/09/05 03:50:53;;;;;;;0.73;0.50;;;27.80;16.40;;;;;;5072229;28;20183;-66
2023/09/05 03:53:20;;;;;;;2.73;0.40;;;27.70;16.00;;;;;;5072778;28;20241;-64
2023/09/05 03:55:47;;;;;;;0.47;0.33;;;27.50;15.80;;;;;;5070618;28;20234;-65
2023/09/05 03:58:15;;;;;;;0.47;0.30;;;27.20;16.00;;;;;;5073537;28;20191;-66
2023/09/05 04:00:42;;;;;;;0.20;0.20;;;27.00;16.50;;;;;;5073390;28;20256;-67
2023/09/05 04:03:10;;;;;;;0.50;0.40;;;27.30;16.30;;;;;;5073359;28;20190;-68
2023/09/05 04:05:38;;;;;;;0.40;0.40;;;27.30;16.10;;;;;;5071742;28;20195;-66
2023/09/05 04:08:09;;;;;;;0.30;0.30;;;27.60;15.80;;;;;;5073369;28;20240;-67
2023/09/05 04:10:37;;;;;;;0.67;0.40;;;27.90;15.60;;;;;;5074000;28;20722;-66
2023/09/05 04:13:04;;;;;;;2.40;0.50;;;28.00;15.60;;;;;;5073234;28;20183;-67
2023/09/05 04:15:32;;;;;;;1.48;0.50;;;28.40;16.00;;;;;;5071519;28;20183;-66
2023/09/05 04:17:59;;;;;;;2.80;0.40;;;28.80;15.70;;;;;;5071219;28;20180;-67
2023/09/05 04:20:27;;;;;;;0.50;0.43;;;28.90;15.40;;;;;;5070472;28;20202;-67
2023/09/05 04:22:54;;;;;;;0.50;0.40;;;29.00;15.70;;;;;;5073845;28;20573;-67
2023/09/05 04:25:23;;;;;;;1.33;0.40;;;29.30;15.80;;;;;;5070867;28;20192;-67
2023/09/05 04:27:52;;;;;;;0.70;0.40;;;29.00;15.40;;;;;;5073055;28;20218;-66
2023/09/05 04:30:19;;;;;;;1.13;0.30;;;28.90;15.20;;;;;;5067318;28;20661;-67
2023/09/05 04:32:46;;;;;;;0.83;0.30;;;28.70;15.60;;;;;;5062857;28;20185;-66
2023/09/05 04:35:14;;;;;;;0.57;0.40;;;28.90;15.50;;;;;;5069389;28;20183;-67
2023/09/05 04:37:41;;;;;;;0.63;0.40;;;29.20;14.90;;;;;;5069898;28;20634;-68
2023/09/05 04:40:10;;;;;;;0.93;0.38;;;29.90;14.70;;;;;;5070018;28;20565;-68
2023/09/05 04:42:38;;;;;;;0.73;0.40;;;30.20;14.90;;;;;;5069180;28;20663;-68
2023/09/05 04:45:07;;;;;;;0.30;0.30;;;29.90;14.60;;;;;;5069131;28;20215;-68
2023/09/05 04:47:34;;;;;;;0.28;0.25;;;29.30;14.80;;;;;;5069905;28;20184;-68
2023/09/05 04:50:02;;;;;;;0.75;0.30;;;28.80;14.80;;;;;;5072004;28;20187;-67
2023/09/05 04:52:30;;;;;;;1.27;0.40;;;29.10;14.60;;;;;;5072846;28;20311;-68
2023/09/05 04:55:00;;;;;;;2.03;0.50;;;29.10;14.50;;;;;;5070959;28;20214;-67
2023/09/05 04:57:28;;;;;;;0.70;0.40;;;29.10;14.50;;;;;;5069259;28;20183;-68
2023/09/05 04:59:59;;;;;;;2.25;0.38;;;29.20;14.20;;;;;;5064475;28;20182;-72
2023/09/05 05:02:28;;;;;;;0.60;0.50;;;29.30;14.60;;;;;;5064527;28;20191;-74
2023/09/05 05:04:56;;;;;;;0.75;0.35;;;29.60;14.20;;;;;;5069736;28;20199;-73
2023/09/05 05:07:23;;;;;;;1.73;0.40;;;29.80;14.30;;;;;;5066983;28;20274;-73
2023/09/05 05:09:51;;;;;;;1.15;0.55;;;28.90;14.20;;;;;;5068216;28;20194;-74
2023/09/05 05:12:18;;;;;;;0.60;0.45;;;29.30;13.80;;;;;;5067359;28;20245;-71
2023/09/05 05:14:46;;;;;;;0.52;0.30;;;29.80;13.60;;;;;;5068296;28;20660;-75
2023/09/05 05:17:13;;;;;;;0.40;0.40;;;29.50;14.00;;;;;;5070402;28;20176;-73
2023/09/05 05:19:41;;;;;;;0.40;0.40;;;29.40;13.80;;;;;;5068277;28;20206;-74
2023/09/05 05:22:08;;;;;;;2.10;0.50;;;29.70;13.90;;;;;;5068137;28;20216;-72
2023/09/05 05:24:36;;;;;;;1.52;0.60;;;29.90;14.20;;;;;;5071132;28;20218;-75
2023/09/05 05:27:03;;;;;;;0.35;0.35;;;30.10;13.90;;;;;;5071757;28;20185;-68
2023/09/05 05:29:32;;;;;;;1.08;0.57;;;29.90;13.70;;;;;;5070553;28;20593;-74
2023/09/05 05:32:00;;;;;;;0.68;0.50;;;29.40;14.70;;;;;;5071500;28;20187;-74
2023/09/05 05:34:30;;;;;;;0.70;0.47;;;29.90;13.50;;;;;;5069631;28;20601;-75
2023/09/05 05:36:57;;;;;;;1.90;0.40;;;30.20;13.80;;;;;;5072929;28;20171;-74
2023/09/05 05:39:25;;;;;;;0.90;0.40;;;30.50;13.40;;;;;;5071012;28;20183;-74
2023/09/05 05:41:53;;;;;;;4.47;0.47;;;30.60;13.60;;;;;;5070978;28;20219;-69
2023/09/05 05:44:20;;;;;;;0.40;0.40;;;30.30;13.30;;;;;;5070514;28;20215;-73
2023/09/05 05:46:48;;;;;;;0.70;0.38;;;29.30;13.90;;;;;;5069708;28;20183;-72
2023/09/05 05:49:15;;;;;;;0.45;0.30;;;29.50;13.80;;;;;;5071041;28;20191;-71
2023/09/05 05:51:42;;;;;;;1.48;0.40;;;29.30;13.60;;;;;;5062685;28;20175;-71
2023/09/05 05:54:10;;;;;;;1.50;0.60;;;28.80;14.10;;;;;;5070349;28;20691;-71
2023/09/05 05:56:37;;;;;;;3.95;0.47;;;28.90;14.30;;;;;;5068724;28;20337;-72
2023/09/05 05:59:06;;;;;;;1.75;0.40;;;28.70;14.60;;;;;;5067686;28;20191;-67
2023/09/05 06:01:34;;;;;;;0.40;0.40;;;28.50;14.40;;;;;;5067298;28;20267;-71
2023/09/05 06:04:01;;;;;;;2.27;0.63;;;28.60;15.00;;;;;;5072960;28;20276;-72
2023/09/05 06:06:28;;;;;;;1.27;0.50;;;28.90;14.30;;;;;;5065029;28;20191;-73
2023/09/05 06:08:56;;;;;;;1.23;0.50;;;28.80;14.30;;;;;;5071558;28;20600;-73
2023/09/05 06:11:23;;;;;;;1.13;0.40;;;28.80;14.10;;;;;;5076081;28;20378;-73
2023/09/05 06:13:52;;;;;;;0.40;0.40;;;28.80;14.30;;;;;;5074041;28;20197;-71
2023/09/05 06:16:22;;;;;;;12.20;0.43;;;28.20;14.50;;;;;;5071787;28;20189;-73
2023/09/05 06:18:49;;;;;;;1.63;0.47;;;27.50;14.40;;;;;;5072798;28;20532;-66
2023/09/05 06:21:17;;;;;;;0.87;0.50;;;27.30;15.00;;;;;;5076771;28;20187;-69
2023/09/05 06:23:44;;;;;;;1.07;0.50;;;27.60;15.00;;;;;;5074744;28;20233;-67
2023/09/05 06:26:12;;;;;;;1.20;0.50;;;27.60;14.90;;;;;;5073397;28;20633;-69
2023/09/05 06:28:39;;;;;;;1.60;0.50;;;27.50;15.10;;;;;;5078515;28;20221;-69
2023/09/05 06:31:07;;;;;;;4.70;0.50;;;27.30;14.80;;;;;;5070276;28;20187;-65
2023/09/05 06:33:34;;;;;;;0.83;0.50;;;27.00;15.10;;;;;;5071926;28;20195;-66
2023/09/05 06:36:08;;;;;;;0.83;0.50;;;27.20;15.10;;;;;;5072544;28;20183;-68
2023/09/05 06:38:36;;;;;;;0.60;0.50;;;26.80;15.00;;;;;;5072559;28;20206;-67
2023/09/05 06:41:11;;;;;;;1.77;0.50;;;26.60;15.20;;;;;;5070054;28;20227;-70
2023/09/05 06:43:39;;;;;;;1.80;0.40;;;26.40;15.20;;;;;;5073570;28;20203;-66
2023/09/05 06:46:08;;;;;;;1.07;0.50;;;26.40;15.30;;;;;;5072886;28;20201;-68
2023/09/05 06:48:40;;;;;;;0.80;0.40;;;26.20;15.00;;;;;;5067134;28;20179;-69
2023/09/05 06:51:07;;;;;;;0.53;0.50;;;26.60;14.80;;;;;;5074717;28;20187;-67
2023/09/05 06:53:34;;;;;;;2.53;0.50;;;26.40;15.30;;;;;;5073159;28;20253;-68
2023/09/05 06:56:02;;;;;;;2.43;0.60;;;26.10;15.50;;;;;;5070709;28;20171;-67
2023/09/05 06:58:29;;;;;;;1.17;0.50;;;26.30;15.80;;;;;;5074558;28;20198;-67
2023/09/05 07:00:56;;;;;;;0.67;0.47;;;26.20;15.60;;;;;;5073677;28;20184;-67
2023/09/05 07:03:24;;;;;;;1.70;0.77;;;26.10;15.70;;;;;;5075459;28;20214;-66
2023/09/05 07:05:53;;;;;;;2.83;0.60;;;24.70;16.80;;;;;;5075003;28;20179;-67
2023/09/05 07:08:21;;;;;;;0.77;0.50;;;24.10;17.90;;;;;;5066245;28;20202;-67
2023/09/05 07:10:49;;;;;;;1.30;0.60;;;24.10;18.20;;;;;;5072028;28;20179;-68
2023/09/05 07:13:16;;;;;;;2.00;0.60;;;23.90;18.20;;;;;;5072606;28;20172;-66
2023/09/05 07:15:44;;;;;;;0.70;0.50;;;23.20;18.30;;;;;;5070671;28;20292;-66
2023/09/05 07:18:12;;;;;;;0.60;0.40;;;22.90;18.70;;;;;;5067310;28;20179;-69
2023/09/05 07:20:40;;;;;;;1.67;0.60;;;22.80;19.00;;;;;;5073607;28;20196;-66
2023/09/05 07:23:07;;;;;;;0.47;0.40;;;22.70;18.80;;;;;;5073204;28;20211;-66
2023/09/05 07:25:38;;;;;;;1.37;0.60;;;22.50;19.00;;;;;;5073295;28;20255;-66
2023/09/05 07:28:06;;;;;;;2.90;0.60;;;22.30;19.00;;;;;;5074299;28;20205;-67
2023/09/05 07:30:34;;;;;;;4.90;0.60;;;22.30;19.00;;;;;;5072842;28;20222;-67
2023/09/05 07:33:02;;;;;;;1.20;0.50;;;22.20;18.90;;;;;;5073074;28;20587;-68
2023/09/05 07:35:30;;;;;;;1.70;0.60;;;22.20;19.10;;;;;;5070975;28;20175;-68
2023/09/05 07:37:58;;;;;;;0.83;0.50;;;22.00;19.30;;;;;;5072103;28;20227;-67
2023/09/05 07:40:26;;;;;;;1.67;0.60;;;21.80;19.40;;;;;;5073573;28;20656;-65
2023/09/05 07:42:55;;;;;;;2.33;0.60;;;21.70;19.70;;;;;;5069012;28;20225;-69
2023/09/05 07:45:24;;;;;;;1.30;0.63;;;21.60;20.00;;;;;;5071019;28;20216;-67
2023/09/05 07:47:52;;;;;;;0.90;0.60;;;21.50;20.40;;;;;;5071017;28;20179;-67
2023/09/05 07:50:20;;;;;;;2.50;0.60;;;21.40;20.60;;;;;;5070419;28;20230;-67
2023/09/05 07:52:47;;;;;;;0.60;0.60;;;21.30;20.80;;;;;;5071089;28;20206;-69
2023/09/05 07:55:15;;;;;;;2.83;0.83;;;21.10;21.50;;;;;;5071252;28;20195;-72
2023/09/05 07:57:44;;;;;;;0.80;0.70;;;21.00;21.50;;;;;;5070291;28;20187;-68
2023/09/05 08:00:15;;;;;;;0.83;0.80;;;20.90;22.00;;;;;;5071483;28;20222;-73
2023/09/05 08:02:43;;;;;;;0.87;0.80;;;20.90;22.00;;;;;;5072135;28;20245;-70
2023/09/05 08:05:12;;;;;;;1.97;0.70;;;20.90;22.10;;;;;;5072336;28;20224;-65
2023/09/05 08:07:39;;;;;;;1.70;0.90;;;20.80;22.40;;;;;;5068942;28;20183;-71
2023/09/05 08:10:07;;;;;;;1.37;0.80;;;20.70;22.30;;;;;;5074564;28;20214;-70
2023/09/05 08:12:35;;;;;;;0.93;0.90;;;20.60;22.60;;;;;;5072926;28;20233;-68
2023/09/05 08:15:03;;;;;;;2.23;0.90;;;20.60;22.80;;;;;;5072626;28;20188;-69
2023/09/05 08:17:30;;;;;;;1.03;0.90;;;20.50;22.40;;;;;;5070404;28;20228;-71
2023/09/05 08:19:58;;;;;;;1.53;1.30;;;20.50;22.50;;;;;;5072703;28;20179;-73
2023/09/05 08:22:26;;;;;;;3.53;1.10;;;20.50;22.60;;;;;;5073367;28;20648;-69
2023/09/05 08:24:53;;;;;;;5.80;1.30;;;20.30;23.00;;;;;;5073016;28;20225;-71
2023/09/05 08:27:28;;;;;;;2.80;1.00;;;20.30;23.20;;;;;;5071554;28;20195;-72
2023/09/05 08:29:59;;;;;;;3.70;1.00;;;20.20;23.60;;;;;;5071438;28;20217;-71
2023/09/05 08:32:27;;;;;;;2.27;0.90;;;20.20;23.50;;;;;;5072102;28;20582;-68
2023/09/05 08:34:54;;;;;;;2.40;0.93;;;20.20;23.50;;;;;;5072661;28;20241;-70
2023/09/05 08:37:21;;;;;;;3.90;1.07;;;20.10;23.60;;;;;;5070443;28;20266;-67
2023/09/05 08:39:49;;;;;;;0.80;0.73;;;20.00;23.40;;;;;;5071279;28;20183;-69
2023/09/05 08:42:16;;;;;;;1.57;1.10;;;20.00;23.70;;;;;;5071963;28;20218;-67
2023/09/05 08:44:44;;;;;;;1.47;1.37;;;19.90;23.60;;;;;;5071054;28;20217;-65
2023/09/05 08:47:12;;;;;;;3.73;1.03;;;19.90;23.70;;;;;;5060872;28;20218;-65
2023/09/05 08:49:39;;;;;;;2.40;1.13;;;19.80;23.50;;;;;;5073673;28;20653;-66
2023/09/05 08:52:10;;;;;;;2.50;1.10;;;19.80;23.60;;;;;;5070826;28;20171;-68
2023/09/05 08:54:38;;;;;;;2.00;1.17;;;19.80;24.00;;;;;;5069399;28;20179;-66
2023/09/05 08:57:06;;;;;;;2.47;1.10;;;19.70;24.00;;;;;;5071515;28;20207;-65
2023/09/05 08:59:34;;;;;;;2.87;1.27;;;19.60;24.10;;;;;;5072458;28;20183;-67
2023/09/05 09:02:02;;;;;;;2.83;1.00;;;19.60;24.40;;;;;;5073047;28;20179;-66
2023/09/05 09:04:30;;;;;;;2.13;1.10;;;19.50;24.40;;;;;;5072922;28;20258;-66
2023/09/05 09:06:58;;;;;;;1.50;1.03;;;19.50;24.60;;;;;;5072272;28;20176;-67
2023/09/05 09:09:39;;;;;;;1.90;1.00;;;19.50;24.40;;;;;;5073061;28;20175;-65
2023/09/05 09:12:08;;;;;;;2.17;1.00;;;19.50;24.50;;;;;;5067297;28;20178;-68
2023/09/05 09:14:35;;;;;;;5.20;1.10;;;19.40;24.50;;;;;;5070263;28;20277;-67
2023/09/05 09:17:05;;;;;;;1.97;1.10;;;19.40;24.60;;;;;;5072371;28;20236;-66
2023/09/05 09:19:33;;;;;;;1.40;1.00;;;19.30;24.80;;;;;;5073221;28;20191;-66
2023/09/05 09:22:03;;;;;;;3.57;1.30;;;19.30;24.90;;;;;;5072738;28;20213;-67
2023/09/05 09:24:40;;;;;;;3.40;1.30;;;19.20;24.90;;;;;;5070060;28;20217;-66
2023/09/05 09:27:09;;;;;;;1.33;1.00;;;19.20;25.00;;;;;;5071343;28;20353;-67
2023/09/05 09:29:40;;;;;;;1.83;1.27;;;19.20;25.20;;;;;;5070002;28;20198;-66
2023/09/05 09:32:08;;;;;;;2.00;1.30;;;19.10;25.30;;;;;;5072128;28;20308;-67
2023/09/05 09:34:37;;;;;;;2.93;1.03;;;19.00;25.40;;;;;;5071222;28;20190;-68
2023/09/05 09:37:05;;;;;;;2.87;1.30;;;19.00;25.50;;;;;;5071218;28;20237;-66
2023/09/05 09:39:32;;;;;;;2.33;1.20;;;19.00;25.60;;;;;;5069787;28;20188;-70
2023/09/05 09:42:00;;;;;;;2.57;1.23;;;18.90;25.80;;;;;;5072888;28;20278;-69
2023/09/05 09:44:32;;;;;;;4.87;1.50;;;18.90;25.80;;;;;;5071850;28;20317;-68
2023/09/05 09:47:02;;;;;;;3.03;1.27;;;18.80;26.00;;;;;;5070330;28;20175;-72
2023/09/05 09:49:31;;;;;;;2.67;1.23;;;18.80;26.10;;;;;;5068564;28;20191;-69
2023/09/05 09:52:04;;;;;;;3.73;1.50;;;18.70;26.20;;;;;;5068951;28;20186;-68
2023/09/05 09:54:38;;;;;;;1.77;1.10;;;18.60;26.20;;;;;;5071050;28;20194;-73
2023/09/05 09:57:06;;;;;;;3.50;1.27;;;18.50;26.10;;;;;;5071940;28;20642;-71
2023/09/05 09:59:37;;;;;;;2.57;1.27;;;18.50;26.20;;;;;;5071214;28;20244;-71
2023/09/05 10:02:10;;;;;;;2.17;1.20;;;18.50;26.30;;;;;;5069991;28;20262;-71
2023/09/05 10:04:38;;;;;;;4.87;1.50;;;18.40;26.40;;;;;;5069730;28;20203;-70
2023/09/05 10:07:08;;;;;;;5.07;1.50;;;18.30;26.60;;;;;;5069884;28;20190;-68
2023/09/05 10:09:37;;;;;;;9.50;2.50;;;18.30;27.00;;;;;;5070664;28;20186;-71
2023/09/05 10:12:05;;;;;;;2.53;1.43;;;18.30;27.30;;;;;;5070825;28;20191;-72
2023/09/05 10:14:34;;;;;;;2.53;1.33;;;18.20;27.70;;;;;;5070430;28;20175;-72
2023/09/05 10:17:03;;;;;;;1.73;1.20;;;18.20;27.60;;;;;;5069465;28;20558;-71
2023/09/05 10:19:31;;;;;;;8.47;1.20;;;18.20;27.90;;;;;;5070733;28;20274;-71
2023/09/05 10:21:59;;;;;;;2.40;1.23;;;18.10;28.30;;;;;;5068708;28;20191;-67
2023/09/05 10:24:30;;;;;;;2.57;1.47;;;18.00;28.50;;;;;;5067193;28;20309;-71
2023/09/05 10:26:57;;;;;;;2.63;1.40;;;18.00;28.80;;;;;;5071569;28;20183;-69
2023/09/05 10:29:44;;;;;;;3.67;1.50;;;17.90;29.00;;;;;;5066997;28;20180;-67
2023/09/05 10:32:17;;;;;;;3.10;1.67;;;17.80;29.30;;;;;;5071243;28;20184;-70
2023/09/05 10:34:47;;;;;;;6.17;1.60;;;17.80;30.20;;;;;;5069030;28;20270;-73
2023/09/05 10:37:17;;;;;;;5.00;1.77;;;17.70;29.80;;;;;;5071013;28;20264;-72
2023/09/05 10:40:06;;;;;;;4.57;1.50;;;17.70;29.90;;;;;;5070992;28;20186;-68
2023/09/05 10:42:35;;;;;;;2.57;1.27;;;17.60;30.40;;;;;;5069356;28;20197;-70
2023/09/05 10:45:18;;;;;;;3.27;1.60;;;17.50;30.60;;;;;;5069799;28;20222;-71
2023/09/05 10:47:49;;;;;;;5.67;1.63;;;17.50;31.10;;;;;;5071695;28;20179;-74
2023/09/05 10:50:22;;;;;;;2.30;1.57;;;17.30;31.20;;;;;;5069652;28;20236;-68
2023/09/05 10:53:12;;;;;;;2.73;1.47;;;17.30;31.80;;;;;;5069722;28;20678;-73
2023/09/05 10:55:52;;;;;;;2.90;1.33;;;17.30;32.10;;;;;;5073329;28;20186;-73
2023/09/05 10:58:43;;;;;;;2.73;1.63;;;17.20;32.50;;;;;;5075870;28;20181;-71
2023/09/05 11:01:34;;;;;;;4.30;1.67;;;17.20;32.90;;;;;;5068597;28;20266;-68
2023/09/05 11:04:07;;;;;;;3.27;1.53;;;17.10;33.30;;;;;;5073797;28;20260;-73
2023/09/05 11:06:42;;;;;;;2.03;1.20;;;17.00;33.60;;;;;;5074005;28;20171;-72
2023/09/05 11:09:10;;;;;;;2.13;1.40;;;16.90;34.30;;;;;;5071002;28;20200;-73
2023/09/05 11:11:40;;;;;;;5.50;2.10;;;16.90;34.50;;;;;;5072133;28;20645;-66
2023/09/05 11:14:07;;;;;;;2.30;1.50;;;16.80;34.80;;;;;;5074474;28;20741;-66
2023/09/05 11:16:51;;;;;;;5.63;1.40;;;16.70;34.80;;;;;;5074169;28;20184;-68
2023/09/05 11:19:39;;;;;;;3.97;1.67;;;16.70;35.70;;;;;;5072486;28;20177;-73
2023/09/05 11:22:15;;;;;;;1.80;1.40;;;16.60;36.10;;;;;;5070691;28;20190;-71
2023/09/05 11:24:48;;;;;;;2.40;1.50;;;16.60;36.20;;;;;;5073439;28;20251;-66
2023/09/05 11:27:20;;;;;;;4.30;1.57;;;16.50;36.80;;;;;;5073595;28;20223;-65
2023/09/05 11:29:51;;;;;;;4.77;1.70;;;16.40;36.90;;;;;;5074081;28;20288;-66
2023/09/05 11:32:19;;;;;;;2.97;1.90;;;16.30;37.30;;;;;;5075235;28;20187;-65
2023/09/05 11:34:48;;;;;;;4.57;1.93;;;16.30;38.20;;;;;;5073721;28;20187;-67
2023/09/05 11:37:22;;;;;;;5.73;2.03;;;16.20;39.00;;;;;;5074023;28;20210;-65
2023/09/05 11:39:51;;;;;;;4.03;1.53;;;16.10;38.80;;;;;;5073107;28;20189;-68
2023/09/05 11:42:23;;;;;;;2.93;1.67;;;16.10;38.70;;;;;;5071618;28;20256;-66
2023/09/05 11:44:53;;;;;;;6.27;1.60;;;16.00;38.50;;;;;;5073304;28;20218;-66
2023/09/05 11:47:22;;;;;;;4.73;1.17;;;15.90;38.80;;;;;;5073369;28;20194;-67
2023/09/05 11:49:51;;;;;;;2.50;1.50;;;15.90;39.10;;;;;;5072808;28;20608;-65
2023/09/05 11:52:20;;;;;;;3.23;1.40;;;15.80;39.70;;;;;;5071802;28;20785;-71
2023/09/05 11:54:52;;;;;;;4.50;1.83;;;15.80;39.70;;;;;;5073551;28;20218;-65
2023/09/05 11:57:21;;;;;;;3.40;1.60;;;15.80;40.60;;;;;;5072019;28;20297;-71
2023/09/05 11:59:49;;;;;;;4.87;1.70;;;15.80;40.20;;;;;;5074342;28;20246;-69
2023/09/05 12:02:18;;;;;;;5.03;2.00;;;15.90;40.00;;;;;;5076312;28;20194;-66
2023/09/05 12:04:48;;;;;;;3.83;1.67;;;15.90;39.90;;;;;;5073858;28;20230;-72
2023/09/05 12:07:15;;;;;;;4.97;1.90;;;15.90;39.70;;;;;;5079449;28;20185;-68
2023/09/05 12:09:47;;;;;;;2.90;1.60;;;15.90;40.20;;;;;;5072055;28;20182;-67
2023/09/05 12:12:19;;;;;;;3.77;1.53;;;15.90;40.20;;;;;;5072785;28;20273;-70
2023/09/05 12:14:54;;;;;;;4.67;1.80;;;15.90;40.30;;;;;;5074612;28;20582;-69
2023/09/05 12:17:23;;;;;;;3.13;1.60;;;15.80;40.60;;;;;;5073230;28;20629;-71
2023/09/05 12:19:55;;;;;;;6.77;2.17;;;15.80;40.90;;;;;;5073683;28;20189;-68
2023/09/05 12:22:28;;;;;;;5.20;1.60;;;15.80;41.50;;;;;;5070923;28;20268;-73
2023/09/05 12:25:08;;;;;;;3.43;1.90;;;15.70;41.40;;;;;;5073831;28;20302;-66
2023/09/05 12:27:36;;;;;;;2.90;1.90;;;15.70;41.80;;;;;;5072204;28;20186;-65
2023/09/05 12:30:04;;;;;;;7.30;1.97;;;15.60;42.40;;;;;;5072991;28;20180;-72
2023/09/05 12:32:31;;;;;;;3.47;1.70;;;15.50;41.80;;;;;;5074594;28;20329;-73
2023/09/05 12:34:58;;;;;;;7.83;1.80;;;15.40;42.00;;;;;;5072642;28;20181;-70
2023/09/05 12:37:25;;;;;;;5.40;2.00;;;15.30;42.90;;;;;;5071668;28;20651;-70
2023/09/05 12:39:56;;;;;;;3.67;1.60;;;15.30;42.70;;;;;;5071152;28;20179;-72
2023/09/05 12:42:25;;;;;;;7.80;1.90;;;15.30;43.40;;;;;;5072418;28;20647;-65
2023/09/05 12:44:52;;;;;;;3.60;2.03;;;15.20;43.40;;;;;;5071200;28;20300;-68
2023/09/05 12:47:20;;;;;;;3.60;1.90;;;15.20;44.00;;;;;;5072416;28;20183;-65
2023/09/05 12:49:47;;;;;;;3.83;1.80;;;15.10;43.50;;;;;;5073855;28;20191;-71
2023/09/05 12:52:14;;;;;;;2.57;1.70;;;15.10;43.20;;;;;;5074647;28;20187;-66
2023/09/05 12:54:44;;;;;;;4.23;2.07;;;14.90;43.20;;;;;;5073169;28;20601;-70
2023/09/05 12:57:11;;;;;;;5.17;2.23;;;14.90;44.70;;;;;;5069789;28;20180;-72